Time;durP1;ratioP1;P1;durP2;ratioP2;P2;SDS_P1;SDS_P2;PMS_P1;PMS_P2;Temp;Humidity;BMP_temperature;BMP_pressure;BME280_temperature;BME280_humidity;BME280_pressure;Samples;Min_cycle;Max_cycle;Signal;HPM_P1;HPM_P2
2021/10/09 00:00:13;;;;;;;;;;;14.20;99.90;;;;;;5073308;28;20003;-78
2021/10/09 00:02:39;;;;;;;;;;;14.20;99.90;;;;;;5079486;28;20413;-77
2021/10/09 00:05:08;;;;;;;;;;;14.30;99.90;;;;;;5073099;28;19920;-78
2021/10/09 00:07:34;;;;;;;;;;;14.40;99.90;;;;;;5082627;28;20294;-77
2021/10/09 00:10:02;;;;;;;;;;;14.40;99.90;;;;;;5074407;28;19913;-77
2021/10/09 00:12:28;;;;;;;;;;;14.30;99.90;;;;;;5074965;28;19913;-77
2021/10/09 00:14:54;;;;;;;;;;;14.20;99.90;;;;;;5073332;28;19908;-77
2021/10/09 00:17:21;;;;;;;;;;;14.10;99.90;;;;;;5076045;28;19932;-77
2021/10/09 00:19:47;;;;;;;;;;;14.20;99.90;;;;;;5082506;28;20017;-77
2021/10/09 00:22:12;;;;;;;;;;;14.30;99.90;;;;;;5077214;28;19927;-78
2021/10/09 00:24:38;;;;;;;;;;;14.30;99.90;;;;;;5075718;28;19917;-79
2021/10/09 00:27:04;;;;;;;;;;;14.20;99.90;;;;;;5076566;28;20381;-79
2021/10/09 00:29:29;;;;;;;;;;;14.20;99.90;;;;;;5086808;28;20017;-77
2021/10/09 00:31:55;;;;;;;;;;;14.30;99.90;;;;;;5080299;28;19972;-77
2021/10/09 00:34:21;;;;;;;;;;;14.30;99.90;;;;;;5085410;28;19916;-77
2021/10/09 00:36:47;;;;;;;;;;;14.20;99.90;;;;;;5073745;28;19912;-77
2021/10/09 00:39:12;;;;;;;;;;;14.30;99.90;;;;;;5078219;28;19912;-79
2021/10/09 00:41:38;;;;;;;;;;;14.10;99.90;;;;;;5071560;28;19930;-78
2021/10/09 00:44:10;;;;;;;;;;;14.10;99.90;;;;;;5075340;28;20343;-78
2021/10/09 00:46:37;;;;;;;;;;;14.00;99.90;;;;;;5080850;28;19915;-78
2021/10/09 00:49:03;;;;;;;;;;;13.90;99.90;;;;;;5074809;28;19974;-78
2021/10/09 00:51:29;;;;;;;;;;;14.00;99.90;;;;;;5082092;28;19912;-77
2021/10/09 00:53:55;;;;;;;;;;;14.00;99.90;;;;;;5075670;28;19920;-78
2021/10/09 00:56:21;;;;;;;;;;;14.10;99.90;;;;;;5075538;28;20397;-78
2021/10/09 00:58:47;;;;;;;;;;;14.00;99.90;;;;;;5077754;28;19948;-78
2021/10/09 01:01:13;;;;;;;;;;;14.00;99.90;;;;;;5072837;28;19913;-78
2021/10/09 01:03:40;;;;;;;;;;;13.90;99.90;;;;;;5072656;28;20317;-77
2021/10/09 01:06:05;;;;;;;;;;;14.00;99.90;;;;;;5073556;28;20399;-78
2021/10/09 01:08:31;;;;;;;;;;;13.80;99.90;;;;;;5076951;28;19973;-77
2021/10/09 01:10:57;;;;;;;;;;;13.80;99.90;;;;;;5074835;28;20357;-78
2021/10/09 01:13:22;;;;;;;;;;;13.70;99.90;;;;;;5078758;28;20377;-78
2021/10/09 01:15:48;;;;;;;;;;;13.80;99.90;;;;;;5079046;28;19962;-78
2021/10/09 01:18:16;;;;;;;;;;;13.90;99.90;;;;;;5080182;28;19912;-79
2021/10/09 01:20:48;;;;;;;;;;;13.80;99.90;;;;;;5075466;28;19919;-78
2021/10/09 01:23:14;;;;;;;;;;;13.90;99.90;;;;;;5077677;28;19951;-77
2021/10/09 01:25:39;;;;;;;;;;;14.00;99.90;;;;;;5076392;28;19912;-77
2021/10/09 01:28:06;;;;;;;;;;;14.10;99.90;;;;;;5076729;28;19909;-77
2021/10/09 01:30:33;;;;;;;;;;;14.20;99.90;;;;;;5077785;28;19920;-77
2021/10/09 01:32:59;;;;;;;;;;;14.30;99.90;;;;;;5086554;28;19940;-77
2021/10/09 01:35:27;;;;;;;;;;;14.30;99.90;;;;;;5072915;28;20332;-77
2021/10/09 01:37:52;;;;;;;;;;;14.20;99.90;;;;;;5070833;28;19913;-80
2021/10/09 01:40:18;;;;;;;;;;;14.10;99.90;;;;;;5077365;28;19917;-78
2021/10/09 01:42:44;;;;;;;;;;;14.20;99.90;;;;;;5072840;28;20428;-77
2021/10/09 01:45:09;;;;;;;;;;;14.20;99.90;;;;;;5077035;28;20345;-77
2021/10/09 01:47:39;;;;;;;;;;;14.20;99.90;;;;;;5083325;28;19919;-77
2021/10/09 01:50:06;;;;;;;;;;;14.20;99.90;;;;;;5072940;28;20002;-77
2021/10/09 01:52:31;;;;;;;;;;;14.20;99.90;;;;;;5075530;28;19916;-77
2021/10/09 01:54:57;;;;;;;;;;;14.20;99.90;;;;;;5073035;28;19936;-77
2021/10/09 01:57:23;;;;;;;;;;;14.10;99.90;;;;;;5076438;28;19916;-77
2021/10/09 01:59:48;;;;;;;;;;;14.10;99.90;;;;;;5077730;28;19920;-78
2021/10/09 02:02:14;;;;;;;;;;;14.10;99.90;;;;;;5075229;28;19938;-77
2021/10/09 02:04:40;;;;;;;;;;;14.00;99.90;;;;;;5074565;28;20335;-78
2021/10/09 02:07:08;;;;;;;;;;;14.00;99.90;;;;;;5073530;28;19923;-78
2021/10/09 02:09:33;;;;;;;;;;;13.90;99.90;;;;;;5074273;28;19917;-77
2021/10/09 02:12:00;;;;;;;;;;;13.90;99.90;;;;;;5074826;28;19935;-78
2021/10/09 02:14:39;;;;;;;;;;;14.00;99.90;;;;;;5072729;28;19908;-78
2021/10/09 02:25:34;;;;;;;;;;;13.90;99.90;;;;;;5069520;28;19971;-78
2021/10/09 02:28:00;;;;;;;;;;;13.90;99.90;;;;;;5068461;28;19913;-77
2021/10/09 02:30:25;;;;;;;;;;;14.10;99.90;;;;;;5072440;28;19978;-77
2021/10/09 02:32:51;;;;;;;;;;;14.10;99.90;;;;;;5073160;28;19923;-78
2021/10/09 02:35:17;;;;;;;;;;;14.10;99.90;;;;;;5072671;28;20336;-77
2021/10/09 02:37:42;;;;;;;;;;;14.20;99.90;;;;;;5070759;28;20336;-77
2021/10/09 02:40:09;;;;;;;;;;;14.20;99.90;;;;;;5073191;28;20316;-77
2021/10/09 02:42:34;;;;;;;;;;;14.20;99.90;;;;;;5073103;28;19919;-78
2021/10/09 02:45:00;;;;;;;;;;;14.20;99.90;;;;;;5075755;28;19912;-77
2021/10/09 02:47:26;;;;;;;;;;;14.20;99.90;;;;;;5076208;28;20335;-78
2021/10/09 02:49:52;;;;;;;;;;;14.20;99.90;;;;;;5074774;28;19920;-77
2021/10/09 02:52:17;;;;;;;;;;;14.20;99.90;;;;;;5078531;28;20549;-77
2021/10/09 02:54:43;;;;;;;;;;;14.10;99.90;;;;;;5077140;28;19974;-77
2021/10/09 02:57:09;;;;;;;;;;;14.20;99.90;;;;;;5077720;28;20008;-78
2021/10/09 02:59:34;;;;;;;;;;;14.20;99.90;;;;;;5080413;28;20429;-77
2021/10/09 03:02:00;;;;;;;;;;;14.20;99.90;;;;;;5077207;28;19920;-78
2021/10/09 03:04:26;;;;;;;;;;;14.10;99.90;;;;;;5075969;28;19908;-77
2021/10/09 03:06:51;;;;;;;;;;;14.10;99.90;;;;;;5073794;28;19920;-80
2021/10/09 03:09:17;;;;;;;;;;;14.10;99.90;;;;;;5078531;28;19920;-77
2021/10/09 03:11:43;;;;;;;;;;;14.10;99.90;;;;;;5080763;28;20008;-77
2021/10/09 03:14:08;;;;;;;;;;;14.10;99.90;;;;;;5076345;28;19917;-78
2021/10/09 03:16:34;;;;;;;;;;;14.10;99.90;;;;;;5082590;28;20383;-77
2021/10/09 03:18:59;;;;;;;;;;;14.00;99.90;;;;;;5082138;28;20361;-78
2021/10/09 03:21:25;;;;;;;;;;;14.00;99.90;;;;;;5087425;28;20354;-78
2021/10/09 03:23:51;;;;;;;;;;;14.00;99.90;;;;;;5081061;28;19993;-77
2021/10/09 03:26:17;;;;;;;;;;;14.00;99.90;;;;;;5076587;28;19916;-78
2021/10/09 03:28:42;;;;;;;;;;;14.00;99.90;;;;;;5080711;28;19916;-77
2021/10/09 03:31:08;;;;;;;;;;;14.10;99.90;;;;;;5076315;28;19908;-78
2021/10/09 03:33:34;;;;;;;;;;;14.10;99.90;;;;;;5079922;28;20332;-77
2021/10/09 03:35:59;;;;;;;;;;;14.10;99.90;;;;;;5088600;28;19913;-77
2021/10/09 03:38:25;;;;;;;;;;;14.10;99.90;;;;;;5077556;28;19928;-77
2021/10/09 03:40:57;;;;;;;;;;;14.00;99.90;;;;;;5076002;28;19912;-78
2021/10/09 03:43:24;;;;;;;;;;;14.00;99.90;;;;;;5073697;28;20395;-77
2021/10/09 03:46:39;;;;;;;;;;;14.00;99.90;;;;;;5077549;28;19915;-77
2021/10/09 03:53:33;;;;;;;;;;;13.90;99.90;;;;;;5074233;28;19917;-77
2021/10/09 03:55:59;;;;;;;;;;;14.00;99.90;;;;;;5074881;28;20004;-77
2021/10/09 03:58:25;;;;;;;;;;;14.00;99.90;;;;;;5081038;28;19960;-77
2021/10/09 04:00:51;;;;;;;;;;;14.00;99.90;;;;;;5078791;28;19913;-78
2021/10/09 04:03:16;;;;;;;;;;;13.90;99.90;;;;;;5079510;28;19948;-78
2021/10/09 04:05:42;;;;;;;;;;;13.90;99.90;;;;;;5079005;28;19913;-78
2021/10/09 04:08:08;;;;;;;;;;;13.90;99.90;;;;;;5078766;28;19920;-77
2021/10/09 04:10:35;;;;;;;;;;;13.90;99.90;;;;;;5075165;28;19916;-77
2021/10/09 04:13:00;;;;;;;;;;;13.90;99.90;;;;;;5078702;28;20014;-77
2021/10/09 04:15:26;;;;;;;;;;;13.90;99.90;;;;;;5079434;28;19912;-78
2021/10/09 04:17:52;;;;;;;;;;;13.80;99.90;;;;;;5075630;28;20007;-79
2021/10/09 04:20:17;;;;;;;;;;;13.80;99.90;;;;;;5079491;28;19919;-78
2021/10/09 04:22:43;;;;;;;;;;;13.80;99.90;;;;;;5084199;28;20398;-78
2021/10/09 04:25:09;;;;;;;;;;;13.80;99.90;;;;;;5081089;28;19927;-77
2021/10/09 04:27:35;;;;;;;;;;;13.80;99.90;;;;;;5077307;28;20516;-77
2021/10/09 04:30:01;;;;;;;;;;;13.80;99.90;;;;;;5075073;28;20402;-77
2021/10/09 04:32:27;;;;;;;;;;;13.80;99.90;;;;;;5084104;28;19965;-77
2021/10/09 04:34:52;;;;;;;;;;;13.70;99.90;;;;;;5082558;28;19912;-78
2021/10/09 04:37:18;;;;;;;;;;;13.80;99.90;;;;;;5078644;28;19912;-77
2021/10/09 04:39:44;;;;;;;;;;;13.70;99.90;;;;;;5075138;28;19913;-77
2021/10/09 04:42:09;;;;;;;;;;;13.70;99.90;;;;;;5074472;28;20454;-77
2021/10/09 04:44:35;;;;;;;;;;;13.70;99.90;;;;;;5082093;28;19937;-77
2021/10/09 04:47:01;;;;;;;;;;;13.70;99.90;;;;;;5079753;28;19943;-77
2021/10/09 04:49:27;;;;;;;;;;;13.70;99.90;;;;;;5078884;28;19927;-77
2021/10/09 04:51:52;;;;;;;;;;;13.70;99.90;;;;;;5079756;28;20329;-77
2021/10/09 04:54:18;;;;;;;;;;;13.70;99.90;;;;;;5084593;28;19938;-78
2021/10/09 04:56:43;;;;;;;;;;;13.70;99.90;;;;;;5078226;28;19910;-78
2021/10/09 04:59:09;;;;;;;;;;;13.70;99.90;;;;;;5078812;28;20426;-78
2021/10/09 05:01:35;;;;;;;;;;;13.60;99.90;;;;;;5074004;28;20353;-78
2021/10/09 05:04:00;;;;;;;;;;;13.70;99.90;;;;;;5079385;28;20011;-78
2021/10/09 05:06:26;;;;;;;;;;;13.60;99.90;;;;;;5077399;28;19952;-77
2021/10/09 05:08:54;;;;;;;;;;;13.60;99.90;;;;;;5073390;28;19928;-77
2021/10/09 05:11:20;;;;;;;;;;;13.60;99.90;;;;;;5071911;28;19920;-77
2021/10/09 05:13:46;;;;;;;;;;;13.60;99.90;;;;;;5075650;28;19912;-77
2021/10/09 05:16:12;;;;;;;;;;;13.60;99.90;;;;;;5074625;28;19920;-78
2021/10/09 05:18:37;;;;;;;;;;;13.60;99.90;;;;;;5076912;28;20331;-78
2021/10/09 05:21:03;;;;;;;;;;;13.60;99.90;;;;;;5082861;28;19908;-78
2021/10/09 05:23:31;;;;;;;;;;;13.60;99.90;;;;;;5072008;28;19917;-77
2021/10/09 05:25:58;;;;;;;;;;;13.60;99.90;;;;;;5077062;28;20331;-77
2021/10/09 05:28:29;;;;;;;;;;;13.70;99.90;;;;;;5084137;28;19908;-78
2021/10/09 05:30:57;;;;;;;;;;;13.60;99.90;;;;;;5060709;28;19909;-77
2021/10/09 05:33:36;;;;;;;;;;;13.70;99.90;;;;;;5071957;28;20007;-77
2021/10/09 05:36:06;;;;;;;;;;;13.70;99.90;;;;;;5074172;28;19912;-78
2021/10/09 05:38:32;;;;;;;;;;;13.70;99.90;;;;;;5072930;28;19938;-78
2021/10/09 05:40:58;;;;;;;;;;;13.70;99.90;;;;;;5074195;28;19931;-78
2021/10/09 05:43:25;;;;;;;;;;;13.70;99.90;;;;;;5072640;28;20417;-77
2021/10/09 05:45:50;;;;;;;;;;;13.70;99.90;;;;;;5067031;28;20322;-77
2021/10/09 05:48:16;;;;;;;;;;;13.70;99.90;;;;;;5077733;28;19999;-78
2021/10/09 05:56:06;;;;;;;;;;;13.80;99.90;;;;;;5072689;28;20361;-78
2021/10/09 06:42:39;;;;;;;;;;;14.00;99.90;;;;;;5070447;28;19924;-76
2021/10/09 06:47:51;;;;;;;;;;;14.10;99.90;;;;;;5074391;28;19998;-75
2021/10/09 07:01:30;;;;;;;;;;;14.20;99.90;;;;;;5073562;28;19919;-77
2021/10/09 07:03:55;;;;;;;;;;;14.30;99.90;;;;;;5070164;28;19912;-75
2021/10/09 07:06:22;;;;;;;;;;;14.30;99.90;;;;;;5073113;28;19997;-76
2021/10/09 07:08:47;;;;;;;;;;;14.30;99.90;;;;;;5068206;28;19917;-74
2021/10/09 07:11:15;;;;;;;;;;;14.40;99.90;;;;;;5074708;28;20396;-76
2021/10/09 07:13:41;;;;;;;;;;;14.40;99.90;;;;;;5072422;28;19927;-74
2021/10/09 07:16:06;;;;;;;;;;;14.40;99.90;;;;;;5072625;28;19920;-75
2021/10/09 07:18:32;;;;;;;;;;;14.50;99.90;;;;;;5072801;28;19912;-75
2021/10/09 07:20:58;;;;;;;;;;;14.50;99.90;;;;;;5074238;28;19920;-75
2021/10/09 07:23:23;;;;;;;;;;;14.50;99.90;;;;;;5072891;28;19916;-75
2021/10/09 07:25:49;;;;;;;;;;;14.40;99.90;;;;;;5066618;28;19935;-75
2021/10/09 07:28:15;;;;;;;;;;;14.40;99.90;;;;;;5068199;28;20332;-74
2021/10/09 07:30:40;;;;;;;;;;;14.50;99.90;;;;;;5073183;28;19983;-75
2021/10/09 07:33:06;;;;;;;;;;;14.40;99.90;;;;;;5070610;28;19927;-76
2021/10/09 07:35:32;;;;;;;;;;;14.40;99.90;;;;;;5075341;28;19916;-76
2021/10/09 07:37:57;;;;;;;;;;;14.50;99.90;;;;;;5078493;28;19912;-76
2021/10/09 07:40:23;;;;;;;;;;;14.40;99.90;;;;;;5079213;28;19912;-76
2021/10/09 07:42:49;;;;;;;;;;;14.50;99.90;;;;;;5074643;28;19999;-77
2021/10/09 07:45:14;;;;;;;;;;;14.50;99.90;;;;;;5080241;28;19913;-75
2021/10/09 07:47:40;;;;;;;;;;;14.50;99.90;;;;;;5080677;28;19912;-75
2021/10/09 07:50:06;;;;;;;;;;;14.50;99.90;;;;;;5073804;28;20408;-77
2021/10/09 07:52:32;;;;;;;;;;;14.40;99.90;;;;;;5072969;28;19916;-75
2021/10/09 07:54:58;;;;;;;;;;;14.50;99.90;;;;;;5074930;28;19912;-76
2021/10/09 07:57:23;;;;;;;;;;;14.50;99.90;;;;;;5077042;28;19912;-80
2021/10/09 07:59:49;;;;;;;;;;;14.50;99.90;;;;;;5076543;28;19912;-75
2021/10/09 08:02:15;;;;;;;;;;;14.50;99.90;;;;;;5080745;28;19915;-76
2021/10/09 08:04:42;;;;;;;;;;;14.50;99.90;;;;;;5078462;28;19909;-75
2021/10/09 08:07:08;;;;;;;;;;;14.60;99.90;;;;;;5077238;28;20422;-76
2021/10/09 08:09:35;;;;;;;;;;;14.60;99.90;;;;;;5076057;28;19979;-75
2021/10/09 08:12:01;;;;;;;;;;;14.60;99.90;;;;;;5079995;28;19910;-79
2021/10/09 08:14:27;;;;;;;;;;;14.60;99.90;;;;;;5078819;28;20450;-77
2021/10/09 08:16:53;;;;;;;;;;;14.60;99.90;;;;;;5077038;28;19908;-76
2021/10/09 08:19:19;;;;;;;;;;;14.60;99.90;;;;;;5082787;28;20376;-76
2021/10/09 08:21:45;;;;;;;;;;;14.60;99.90;;;;;;5075346;28;19920;-75
2021/10/09 08:24:32;;;;;;;;;;;14.70;99.90;;;;;;5076146;28;19920;-76
2021/10/09 08:27:16;;;;;;;;;;;14.70;99.90;;;;;;5073959;28;19916;-75
2021/10/09 08:40:34;;;;;;;;;;;14.90;99.90;;;;;;5076390;28;20281;-76
2021/10/09 08:43:00;;;;;;;;;;;14.90;99.90;;;;;;5074109;28;19912;-76
2021/10/09 08:45:26;;;;;;;;;;;15.00;99.90;;;;;;5080761;28;20008;-76
2021/10/09 08:47:52;;;;;;;;;;;15.00;99.90;;;;;;5076395;28;19912;-76
2021/10/09 08:50:17;;;;;;;;;;;15.00;99.90;;;;;;5076665;28;20010;-76
2021/10/09 08:53:09;;;;;;;;;;;15.10;99.90;;;;;;5073768;28;20281;-77
2021/10/09 08:55:53;;;;;;;;;;;15.10;99.90;;;;;;5056333;28;19919;-75
2021/10/09 08:58:29;;;;;;;;;;;15.10;99.90;;;;;;5066468;28;19920;-74
2021/10/09 09:03:33;;;;;;;;;;;15.00;99.90;;;;;;5055082;28;19948;-76
2021/10/09 09:08:41;;;;;;;;;;;14.90;99.90;;;;;;5058487;28;20050;-75
2021/10/09 09:25:30;;;;;;;;;;;15.20;99.90;;;;;;5073226;28;19931;-76
2021/10/09 09:36:08;;;;;;;;;;;15.50;99.90;;;;;;5062010;28;19913;-75
2021/10/09 09:41:14;;;;;;;;;;;15.60;99.90;;;;;;5074420;28;19971;-75
2021/10/09 09:43:41;;;;;;;;;;;15.60;99.90;;;;;;5057983;28;19970;-77
2021/10/09 09:46:10;;;;;;;;;;;15.50;99.90;;;;;;5074327;28;19931;-76
2021/10/09 09:48:36;;;;;;;;;;;15.40;99.90;;;;;;5072286;28;19966;-75
2021/10/09 09:51:01;;;;;;;;;;;15.20;99.90;;;;;;5074457;28;19917;-75
2021/10/09 09:53:27;;;;;;;;;;;15.30;99.90;;;;;;5072638;28;19913;-76
2021/10/09 09:55:53;;;;;;;;;;;15.30;99.90;;;;;;5086849;28;20388;-76
2021/10/09 09:58:22;;;;;;;;;;;15.30;99.90;;;;;;5073522;28;19991;-76
2021/10/09 10:00:48;;;;;;;;;;;15.40;99.90;;;;;;5073815;28;19914;-75
2021/10/09 10:03:15;;;;;;;;;;;15.20;99.90;;;;;;5074747;28;19991;-76
2021/10/09 10:05:40;;;;;;;;;;;15.20;99.90;;;;;;5072412;28;19915;-76
2021/10/09 10:08:10;;;;;;;;;;;15.50;99.90;;;;;;5073989;28;19909;-76
2021/10/09 10:10:35;;;;;;;;;;;15.70;99.90;;;;;;5074368;28;20317;-77
2021/10/09 10:13:01;;;;;;;;;;;15.90;99.90;;;;;;5073887;28;19913;-78
2021/10/09 10:15:28;;;;;;;;;;;15.90;99.90;;;;;;5055593;28;19962;-75
2021/10/09 10:17:54;;;;;;;;;;;15.80;99.90;;;;;;5053385;28;20384;-74
2021/10/09 10:20:20;;;;;;;;;;;15.70;99.90;;;;;;5053969;28;19912;-77
2021/10/09 10:22:48;;;;;;;;;;;15.70;99.90;;;;;;5058734;28;20374;-76
2021/10/09 10:25:28;;;;;;;;;;;15.80;99.90;;;;;;5073623;28;19913;-75
2021/10/09 10:28:00;;;;;;;;;;;15.80;99.90;;;;;;5073079;28;19909;-78
2021/10/09 10:30:28;;;;;;;;;;;15.80;99.90;;;;;;5069600;28;19923;-77
2021/10/09 10:32:58;;;;;;;;;;;15.80;99.90;;;;;;5070872;28;19919;-78
2021/10/09 10:35:29;;;;;;;;;;;15.80;99.90;;;;;;5055032;28;19909;-76
2021/10/09 10:37:57;;;;;;;;;;;15.90;99.90;;;;;;5054438;28;20061;-77
2021/10/09 10:40:41;;;;;;;;;;;15.90;99.90;;;;;;5057335;28;19930;-78
2021/10/09 10:43:25;;;;;;;;;;;16.00;99.90;;;;;;5059081;28;20078;-77
2021/10/09 10:45:51;;;;;;;;;;;16.10;99.90;;;;;;5073701;28;19909;-77
2021/10/09 10:48:37;;;;;;;;;;;16.00;99.90;;;;;;5073500;28;20005;-75
2021/10/09 10:51:13;;;;;;;;;;;16.00;99.90;;;;;;5064925;28;19925;-76
2021/10/09 10:54:09;;;;;;;;;;;15.90;99.90;;;;;;5060701;28;19913;-77
2021/10/09 10:56:36;;;;;;;;;;;16.00;99.90;;;;;;5064361;28;19919;-76
2021/10/09 10:59:20;;;;;;;;;;;15.80;99.90;;;;;;5064929;28;20396;-76
2021/10/09 11:01:46;;;;;;;;;;;15.70;99.90;;;;;;5072132;28;19919;-78
2021/10/09 11:04:12;;;;;;;;;;;15.90;99.90;;;;;;5062348;28;19912;-76
2021/10/09 11:06:38;;;;;;;;;;;16.00;99.90;;;;;;5064887;28;19908;-76
2021/10/09 11:09:03;;;;;;;;;;;16.00;99.90;;;;;;5075212;28;20604;-76
2021/10/09 11:11:37;;;;;;;;;;;16.10;99.90;;;;;;5077535;28;19999;-78
2021/10/09 11:14:03;;;;;;;;;;;16.10;99.90;;;;;;5066589;28;19916;-77
2021/10/09 11:16:29;;;;;;;;;;;15.90;99.90;;;;;;5056927;28;19912;-75
2021/10/09 11:18:55;;;;;;;;;;;15.80;99.90;;;;;;5072342;28;19909;-78
2021/10/09 11:21:21;;;;;;;;;;;15.70;99.90;;;;;;5076157;28;19962;-78
2021/10/09 11:23:48;;;;;;;;;;;15.80;99.90;;;;;;5066274;28;20019;-77
2021/10/09 11:26:14;;;;;;;;;;;15.80;99.90;;;;;;5077247;28;19913;-76
2021/10/09 11:28:41;;;;;;;;;;;15.70;99.90;;;;;;5076862;28;19912;-77
2021/10/09 11:31:07;;;;;;;;;;;15.70;99.90;;;;;;5077853;28;19923;-76
2021/10/09 11:33:33;;;;;;;;;;;15.90;99.90;;;;;;5073156;28;19912;-76
2021/10/09 11:36:01;;;;;;;;;;;15.90;99.90;;;;;;5076826;28;19912;-75
2021/10/09 11:38:29;;;;;;;;;;;15.90;99.90;;;;;;5076910;28;19909;-76
2021/10/09 11:41:06;;;;;;;;;;;16.00;99.90;;;;;;5073820;28;19912;-76
2021/10/09 11:43:59;;;;;;;;;;;15.80;99.90;;;;;;5070826;28;19912;-76
2021/10/09 11:55:02;;;;;;;;;;;15.90;99.90;;;;;;5076319;28;19918;-76
2021/10/09 11:57:30;;;;;;;;;;;16.00;99.90;;;;;;5075838;28;20207;-76
2021/10/09 11:59:56;;;;;;;;;;;15.90;99.90;;;;;;5067756;28;19960;-76
2021/10/09 12:02:32;;;;;;;;;;;16.00;99.90;;;;;;5071946;28;19912;-77
2021/10/09 12:04:58;;;;;;;;;;;16.00;99.90;;;;;;5063195;28;20014;-76
2021/10/09 12:07:24;;;;;;;;;;;15.90;99.90;;;;;;5076061;28;19913;-75
2021/10/09 12:10:01;;;;;;;;;;;15.90;99.90;;;;;;5075333;28;20003;-77
2021/10/09 12:12:31;;;;;;;;;;;16.00;99.90;;;;;;5076374;28;19908;-76
2021/10/09 12:14:57;;;;;;;;;;;15.90;99.90;;;;;;5076691;28;20312;-76
2021/10/09 12:17:32;;;;;;;;;;;15.90;99.90;;;;;;5066942;28;19909;-77
2021/10/09 12:19:58;;;;;;;;;;;15.70;99.90;;;;;;5073141;28;19913;-76
2021/10/09 12:22:24;;;;;;;;;;;15.70;99.90;;;;;;5076261;28;19995;-77
2021/10/09 12:24:51;;;;;;;;;;;15.70;99.90;;;;;;5075203;28;20028;-76
2021/10/09 12:27:20;;;;;;;;;;;15.80;99.90;;;;;;5075111;28;19920;-77
2021/10/09 12:29:56;;;;;;;;;;;15.90;99.90;;;;;;5075728;28;19912;-76
2021/10/09 12:32:22;;;;;;;;;;;16.00;99.90;;;;;;5068785;28;19917;-76
2021/10/09 12:35:01;;;;;;;;;;;16.00;99.90;;;;;;5055593;28;19909;-76
2021/10/09 12:37:28;;;;;;;;;;;15.90;99.90;;;;;;5055677;28;19920;-77
2021/10/09 12:40:12;;;;;;;;;;;15.80;99.90;;;;;;5063734;28;20065;-77
2021/10/09 12:42:40;;;;;;;;;;;15.50;99.90;;;;;;5066923;28;19923;-77
2021/10/09 12:45:06;;;;;;;;;;;15.70;99.90;;;;;;5067391;28;20620;-77
2021/10/09 12:47:32;;;;;;;;;;;15.70;99.90;;;;;;5069529;28;19959;-76
2021/10/09 12:49:58;;;;;;;;;;;15.40;99.90;;;;;;5077136;28;20005;-77
2021/10/09 12:52:23;;;;;;;;;;;15.40;99.90;;;;;;5070106;28;19927;-76
2021/10/09 12:54:49;;;;;;;;;;;15.60;99.90;;;;;;5073113;28;20064;-75
2021/10/09 12:57:14;;;;;;;;;;;15.70;99.90;;;;;;5072382;28;19912;-76
2021/10/09 12:59:40;;;;;;;;;;;15.70;99.90;;;;;;5072464;28;19958;-78
2021/10/09 13:02:06;;;;;;;;;;;15.70;99.90;;;;;;5075125;28;19908;-77
2021/10/09 13:04:32;;;;;;;;;;;15.60;99.90;;;;;;5074633;28;19919;-77
2021/10/09 13:06:58;;;;;;;;;;;15.80;99.90;;;;;;5075078;28;19917;-76
2021/10/09 13:09:23;;;;;;;;;;;15.70;99.90;;;;;;5073818;28;19942;-77
2021/10/09 13:12:00;;;;;;;;;;;15.50;99.90;;;;;;5071052;28;19913;-77
2021/10/09 13:14:26;;;;;;;;;;;15.60;99.90;;;;;;5072010;28;19912;-76
2021/10/09 13:16:51;;;;;;;;;;;15.60;99.90;;;;;;5073245;28;19919;-76
2021/10/09 13:19:17;;;;;;;;;;;15.50;99.90;;;;;;5072561;28;20315;-76
2021/10/09 13:21:43;;;;;;;;;;;15.50;99.90;;;;;;5074331;28;19908;-76
2021/10/09 13:24:09;;;;;;;;;;;15.50;99.90;;;;;;5072633;28;19921;-76
2021/10/09 13:26:35;;;;;;;;;;;15.50;99.90;;;;;;5073601;28;19912;-74
2021/10/09 13:29:00;;;;;;;;;;;15.50;99.90;;;;;;5074969;28;20003;-76
2021/10/09 13:31:26;;;;;;;;;;;15.50;99.90;;;;;;5072297;28;19978;-76
2021/10/09 13:33:52;;;;;;;;;;;15.50;99.90;;;;;;5073770;28;19912;-75
2021/10/09 13:36:19;;;;;;;;;;;15.50;99.90;;;;;;5082800;28;19912;-76
2021/10/09 13:38:45;;;;;;;;;;;15.50;99.90;;;;;;5092822;28;19908;-75
2021/10/09 13:41:11;;;;;;;;;;;15.60;99.90;;;;;;5075363;28;19923;-75
2021/10/09 13:43:37;;;;;;;;;;;15.50;99.90;;;;;;5074498;28;19915;-76
2021/10/09 13:46:02;;;;;;;;;;;15.50;99.90;;;;;;5074350;28;19962;-77
2021/10/09 13:48:28;;;;;;;;;;;15.30;99.90;;;;;;5074182;28;19908;-77
2021/10/09 13:50:53;;;;;;;;;;;15.50;99.90;;;;;;5071311;28;20004;-77
2021/10/09 13:53:19;;;;;;;;;;;15.40;99.90;;;;;;5074482;28;19935;-77
2021/10/09 13:55:46;;;;;;;;;;;15.40;99.90;;;;;;5075706;28;19908;-77
2021/10/09 13:58:12;;;;;;;;;;;15.40;99.90;;;;;;5074471;28;20384;-78
2021/10/09 14:00:38;;;;;;;;;;;15.60;99.90;;;;;;5074203;28;19909;-77
2021/10/09 14:03:04;;;;;;;;;;;15.70;99.90;;;;;;5074083;28;19928;-77
2021/10/09 14:05:30;;;;;;;;;;;15.60;99.90;;;;;;5073841;28;20332;-78
2021/10/09 14:07:56;;;;;;;;;;;15.30;99.90;;;;;;5072003;28;19912;-77
2021/10/09 14:10:22;;;;;;;;;;;15.40;99.90;;;;;;5073913;28;19927;-77
2021/10/09 14:12:47;;;;;;;;;;;15.40;99.90;;;;;;5075751;28;19919;-78
2021/10/09 14:15:13;;;;;;;;;;;15.30;99.90;;;;;;5074411;28;19913;-78
2021/10/09 14:17:39;;;;;;;;;;;15.40;99.90;;;;;;5072461;28;19915;-78
2021/10/09 14:20:06;;;;;;;;;;;15.30;99.90;;;;;;5073587;28;20353;-77
2021/10/09 14:22:32;;;;;;;;;;;15.30;99.90;;;;;;5072391;28;19919;-77
2021/10/09 14:24:58;;;;;;;;;;;15.20;99.90;;;;;;5073603;28;19970;-77
2021/10/09 14:27:23;;;;;;;;;;;15.20;99.90;;;;;;5073353;28;19913;-77
2021/10/09 14:29:49;;;;;;;;;;;15.30;99.90;;;;;;5088984;28;19917;-76
2021/10/09 14:32:15;;;;;;;;;;;15.30;99.90;;;;;;5075027;28;19908;-77
2021/10/09 14:34:41;;;;;;;;;;;15.30;99.90;;;;;;5092080;28;19923;-77
2021/10/09 14:37:06;;;;;;;;;;;15.40;99.90;;;;;;5082486;28;19912;-77
2021/10/09 14:39:32;;;;;;;;;;;15.30;99.90;;;;;;5070725;28;19974;-77
2021/10/09 14:41:59;;;;;;;;;;;15.40;99.90;;;;;;5073889;28;19909;-77
2021/10/09 14:44:24;;;;;;;;;;;15.30;99.90;;;;;;5073429;28;19909;-77
2021/10/09 14:49:23;;;;;;;;;;;15.30;99.90;;;;;;5053244;28;19931;-77
2021/10/09 14:51:55;;;;;;;;;;;15.40;99.90;;;;;;5061988;28;19938;-77
2021/10/09 15:18:52;;;;;;;;;;;15.00;99.90;;;;;;5073545;28;19935;-76
2021/10/09 15:21:17;;;;;;;;;;;15.00;99.90;;;;;;5071820;28;20373;-77
2021/10/09 15:23:43;;;;;;;;;;;15.00;99.90;;;;;;5072364;28;19916;-77
2021/10/09 15:26:08;;;;;;;;;;;15.00;99.90;;;;;;5071871;28;19948;-77
2021/10/09 15:28:34;;;;;;;;;;;15.00;99.90;;;;;;5072690;28;19962;-77
2021/10/09 15:31:00;;;;;;;;;;;15.00;99.90;;;;;;5074866;28;19978;-77
2021/10/09 15:33:25;;;;;;;;;;;15.00;99.90;;;;;;5072673;28;19916;-79
2021/10/09 15:35:51;;;;;;;;;;;15.00;99.90;;;;;;5071427;28;20030;-77
2021/10/09 15:38:17;;;;;;;;;;;14.80;99.90;;;;;;5080986;28;19950;-77
2021/10/09 15:40:43;;;;;;;;;;;14.80;99.90;;;;;;5078791;28;19923;-77
2021/10/09 15:43:08;;;;;;;;;;;14.80;99.90;;;;;;5072774;28;19920;-77
2021/10/09 15:45:35;;;;;;;;;;;14.80;99.90;;;;;;5072213;28;20349;-77
2021/10/09 15:48:02;;;;;;;;;;;14.80;99.90;;;;;;5082091;28;20278;-77
2021/10/09 15:50:28;;;;;;;;;;;14.70;99.90;;;;;;5092592;28;19912;-77
2021/10/09 15:52:53;;;;;;;;;;;14.60;99.90;;;;;;5076647;28;20381;-77
2021/10/09 15:55:19;;;;;;;;;;;14.50;99.90;;;;;;5088789;28;20378;-77
2021/10/09 15:57:44;;;;;;;;;;;14.40;99.90;;;;;;5076192;28;19909;-77
2021/10/09 16:00:10;;;;;;;;;;;14.20;99.90;;;;;;5075486;28;19912;-77
2021/10/09 16:02:36;;;;;;;;;;;14.30;99.90;;;;;;5077542;28;19909;-77
2021/10/09 16:05:02;;;;;;;;;;;14.20;99.90;;;;;;5077299;28;19912;-77
2021/10/09 16:07:29;;;;;;;;;;;14.20;99.90;;;;;;5079445;28;19912;-77
2021/10/09 16:09:54;;;;;;;;;;;14.10;99.90;;;;;;5097197;28;19962;-77
2021/10/09 16:12:20;;;;;;;;;;;14.20;99.90;;;;;;5095041;28;19966;-77
2021/10/09 16:14:46;;;;;;;;;;;14.00;99.90;;;;;;5096318;28;20432;-77
2021/10/09 16:17:18;;;;;;;;;;;14.00;99.90;;;;;;5095575;28;19918;-76
2021/10/09 16:19:44;;;;;;;;;;;14.00;99.90;;;;;;5095665;28;19908;-77
2021/10/09 16:22:10;;;;;;;;;;;14.00;99.90;;;;;;5095192;28;19916;-77
2021/10/09 16:24:35;;;;;;;;;;;13.90;99.90;;;;;;5072834;28;20289;-77
2021/10/09 16:27:01;;;;;;;;;;;13.80;99.90;;;;;;5078853;28;19966;-77
2021/10/09 16:29:26;;;;;;;;;;;13.80;99.90;;;;;;5075475;28;20663;-77
2021/10/09 16:31:52;;;;;;;;;;;13.80;99.90;;;;;;5075794;28;19919;-77
2021/10/09 16:34:18;;;;;;;;;;;13.70;99.90;;;;;;5074486;28;19916;-76
2021/10/09 16:36:43;;;;;;;;;;;13.70;99.90;;;;;;5076107;28;19908;-77
2021/10/09 16:39:09;;;;;;;;;;;13.70;99.90;;;;;;5088228;28;20413;-77
2021/10/09 16:41:35;;;;;;;;;;;13.60;99.90;;;;;;5080299;28;19919;-77
2021/10/09 16:44:00;;;;;;;;;;;13.60;99.90;;;;;;5075113;28;19908;-77
2021/10/09 16:46:26;;;;;;;;;;;13.50;99.90;;;;;;5077358;28;19913;-77
2021/10/09 16:48:52;;;;;;;;;;;13.50;99.90;;;;;;5094658;28;19919;-77